createdAt,value
2018-02-09T00:00:36.750Z,89.17
2018-02-09T00:03:04.315Z,89.28
2018-02-09T00:05:31.878Z,89.38
2018-02-09T00:07:59.495Z,89.64
2018-02-09T00:10:27.126Z,89.64
2018-02-09T00:12:54.745Z,89.29
2018-02-09T00:15:22.310Z,89.34
2018-02-09T00:17:49.893Z,89.04
2018-02-09T00:20:17.523Z,89.25
2018-02-09T00:22:52.933Z,89.01
2018-02-09T00:25:20.507Z,88.83
2018-02-09T00:27:48.067Z,88.57
2018-02-09T00:30:15.747Z,88.50
2018-02-09T00:32:43.315Z,88.33
2018-02-09T00:35:10.875Z,88.07
2018-02-09T00:37:38.519Z,87.96
2018-02-09T00:40:06.098Z,88.11
2018-02-09T00:42:33.744Z,88.15
2018-02-09T00:45:01.470Z,88.13
2018-02-09T00:47:29.099Z,88.07
2018-02-09T00:49:56.646Z,88.27
2018-02-09T00:52:24.218Z,88.25
2018-02-09T00:54:51.774Z,88.28
2018-02-09T00:57:19.342Z,88.16
2018-02-09T00:59:46.909Z,87.77
2018-02-09T01:02:14.577Z,87.90
2018-02-09T01:04:42.158Z,87.95
2018-02-09T01:07:09.741Z,87.91
2018-02-09T01:09:37.310Z,88.09
2018-02-09T01:12:04.926Z,87.82
2018-02-09T01:14:32.562Z,87.85
2018-02-09T01:17:00.130Z,87.92
2018-02-09T01:19:27.707Z,87.40
2018-02-09T01:21:55.331Z,87.18
2018-02-09T01:24:22.945Z,87.35
2018-02-09T01:26:50.506Z,87.19
2018-02-09T01:29:18.066Z,87.36
2018-02-09T01:31:45.646Z,87.66
2018-02-09T01:34:13.222Z,87.74
2018-02-09T01:36:40.856Z,87.77
2018-02-09T01:39:08.494Z,88.18
2018-02-09T01:41:36.123Z,88.15
2018-02-09T01:44:03.703Z,88.17
2018-02-09T01:46:31.271Z,88.21
2018-02-09T01:48:58.895Z,88.11
2018-02-09T01:51:26.477Z,88.13
2018-02-09T01:53:54.045Z,88.10
2018-02-09T01:56:21.686Z,88.02
2018-02-09T01:58:49.321Z,88.09
2018-02-09T02:01:16.947Z,87.82
2018-02-09T02:03:44.515Z,87.68
2018-02-09T02:06:12.166Z,87.61
2018-02-09T02:08:39.736Z,87.52
2018-02-09T02:11:07.372Z,87.42
2018-02-09T02:13:35.007Z,87.27
2018-02-09T02:16:02.566Z,87.21
2018-02-09T02:18:30.144Z,87.26
2018-02-09T02:20:57.739Z,87.11
2018-02-09T02:23:25.310Z,87.06
2018-02-09T02:25:53.078Z,87.24
2018-02-09T02:28:20.646Z,87.10
2018-02-09T02:30:48.219Z,87.00
2018-02-09T02:33:15.868Z,87.17
2018-02-09T02:35:43.495Z,87.02
2018-02-09T02:38:11.131Z,86.98
2018-02-09T02:40:38.712Z,87.04
2018-02-09T02:43:06.285Z,86.71
2018-02-09T02:45:33.888Z,86.58
2018-02-09T02:48:01.470Z,86.59
2018-02-09T02:50:29.093Z,86.49
2018-02-09T02:52:56.658Z,86.31
2018-02-09T02:55:24.286Z,86.42
2018-02-09T02:57:51.920Z,86.18
2018-02-09T03:00:19.840Z,86.29
2018-02-09T03:02:47.471Z,86.28
2018-02-09T03:05:15.094Z,86.39
2018-02-09T03:07:42.654Z,86.60
2018-02-09T03:10:10.291Z,86.56
2018-02-09T03:12:37.849Z,86.63
2018-02-09T03:15:05.468Z,86.44
2018-02-09T03:17:33.015Z,86.28
2018-02-09T03:20:00.582Z,86.29
2018-02-09T03:22:28.161Z,86.09
2018-02-09T03:24:55.718Z,86.10
2018-02-09T03:27:23.394Z,86.08
2018-02-09T03:29:50.951Z,86.12
2018-02-09T03:32:18.525Z,86.35
2018-02-09T03:34:46.099Z,86.49
2018-02-09T03:37:13.674Z,86.09
2018-02-09T03:39:41.367Z,86.39
2018-02-09T03:42:08.935Z,86.11
2018-02-09T03:44:36.511Z,86.03
2018-02-09T03:47:04.086Z,85.94
2018-02-09T03:49:31.668Z,85.68
2018-02-09T03:51:59.355Z,85.69
2018-02-09T03:54:26.970Z,85.87
2018-02-09T03:56:54.544Z,85.87
2018-02-09T03:59:22.182Z,85.66
2018-02-09T04:01:49.745Z,85.83
2018-02-09T04:04:17.430Z,85.84
2018-02-09T04:06:45.058Z,85.82
2018-02-09T04:09:12.692Z,85.57
2018-02-09T04:11:40.308Z,85.60
2018-02-09T04:14:07.881Z,85.58
2018-02-09T04:16:35.505Z,85.74
2018-02-09T04:19:03.099Z,85.35
2018-02-09T04:21:30.752Z,85.38
2018-02-09T04:23:58.410Z,85.30
2018-02-09T04:26:25.973Z,85.49
2018-02-09T04:28:53.646Z,85.14
2018-02-09T04:31:21.234Z,85.04
2018-02-09T04:33:48.803Z,85.06
2018-02-09T04:36:16.431Z,85.14
2018-02-09T04:38:44.005Z,85.25
2018-02-09T04:41:11.654Z,84.67
2018-02-09T04:43:39.308Z,83.46
2018-02-09T04:46:06.877Z,83.23
2018-02-09T04:48:34.505Z,83.67
2018-02-09T04:51:02.933Z,83.62
2018-02-09T04:53:30.661Z,83.50
2018-02-09T04:55:58.230Z,82.95
2018-02-09T04:58:25.790Z,83.59
2018-02-09T05:00:53.371Z,83.98
2018-02-09T05:03:21.026Z,84.02
2018-02-09T05:05:48.746Z,84.28
2018-02-09T05:08:16.367Z,84.26
2018-02-09T05:10:43.934Z,84.16
2018-02-09T05:13:11.570Z,84.57
2018-02-09T05:15:39.194Z,84.63
2018-02-09T05:18:06.826Z,84.70
2018-02-09T05:20:34.385Z,84.28
2018-02-09T05:23:01.968Z,83.99
2018-02-09T05:25:29.543Z,83.79
2018-02-09T05:27:57.168Z,83.67
2018-02-09T05:30:24.777Z,82.29
2018-02-09T05:32:52.407Z,81.73
2018-02-09T05:35:19.979Z,81.26
2018-02-09T05:37:47.615Z,80.51
2018-02-09T05:40:15.200Z,80.74
2018-02-09T05:42:42.839Z,80.26
2018-02-09T05:45:10.410Z,79.29
2018-02-09T05:47:37.971Z,79.25
2018-02-09T05:50:05.580Z,79.15
2018-02-09T05:52:33.149Z,79.76
2018-02-09T05:55:00.769Z,80.96
2018-02-09T05:57:28.390Z,81.43
2018-02-09T05:59:55.950Z,81.51
2018-02-09T06:02:23.521Z,82.00
2018-02-09T06:04:51.142Z,81.96
2018-02-09T06:07:18.781Z,81.57
2018-02-09T06:09:46.349Z,80.60
2018-02-09T06:12:14.026Z,80.29
2018-02-09T06:14:41.596Z,80.29
2018-02-09T06:17:09.138Z,80.60
2018-02-09T06:19:36.715Z,80.59
2018-02-09T06:22:04.295Z,79.74
2018-02-09T06:24:31.928Z,79.19
2018-02-09T06:26:59.502Z,77.82
2018-02-09T06:29:27.122Z,77.21
2018-02-09T06:31:54.678Z,76.63
2018-02-09T06:34:22.239Z,76.40
2018-02-09T06:36:49.805Z,76.17
2018-02-09T06:39:17.361Z,76.16
2018-02-09T06:41:44.947Z,75.06
2018-02-09T06:44:12.550Z,75.29
2018-02-09T06:46:40.351Z,73.34
2018-02-09T06:49:07.921Z,73.11
2018-02-09T06:51:35.551Z,73.86
2018-02-09T06:54:03.140Z,73.14
2018-02-09T06:56:30.772Z,72.62
2018-02-09T06:58:58.347Z,72.54
2018-02-09T07:01:25.966Z,73.02
2018-02-09T07:03:53.577Z,72.21
2018-02-09T07:06:21.139Z,72.03
2018-02-09T07:08:48.703Z,72.38
2018-02-09T07:11:16.265Z,72.56
2018-02-09T07:13:43.893Z,71.69
2018-02-09T07:16:11.527Z,71.24
2018-02-09T07:18:39.084Z,71.11
2018-02-09T07:21:06.758Z,71.39
2018-02-09T07:23:34.323Z,72.12
2018-02-09T07:26:01.888Z,72.44
2018-02-09T07:28:29.460Z,71.03
2018-02-09T07:30:57.029Z,71.76
2018-02-09T07:33:24.654Z,70.87
2018-02-09T07:35:52.228Z,70.89
2018-02-09T07:38:19.828Z,71.74
2018-02-09T07:40:47.392Z,70.80
2018-02-09T07:43:15.073Z,70.45
2018-02-09T07:45:42.650Z,71.03
2018-02-09T07:48:10.218Z,69.22
2018-02-09T07:50:37.820Z,70.18
2018-02-09T07:53:05.363Z,68.89
2018-02-09T07:55:32.996Z,68.58
2018-02-09T07:58:00.646Z,69.40
2018-02-09T08:00:28.206Z,69.13
2018-02-09T08:02:55.788Z,69.26
2018-02-09T08:05:23.367Z,69.55
2018-02-09T08:07:51.008Z,68.79
2018-02-09T08:10:18.630Z,68.23
2018-02-09T08:12:46.258Z,68.90
2018-02-09T08:15:13.886Z,67.64
2018-02-09T08:17:41.460Z,68.00
2018-02-09T08:20:09.049Z,67.83
2018-02-09T08:22:36.679Z,67.42
2018-02-09T08:25:04.298Z,67.47
2018-02-09T08:27:31.936Z,67.22
2018-02-09T08:29:59.558Z,66.48
2018-02-09T08:32:27.183Z,67.35
2018-02-09T08:34:54.784Z,67.73
2018-02-09T08:37:22.370Z,67.71
2018-02-09T08:39:49.954Z,66.73
2018-02-09T08:42:17.541Z,66.66
2018-02-09T08:44:45.094Z,66.46
2018-02-09T08:47:12.770Z,66.63
2018-02-09T08:49:40.387Z,66.04
2018-02-09T08:52:07.954Z,65.89
2018-02-09T08:54:35.530Z,66.23
2018-02-09T08:57:03.155Z,65.71
2018-02-09T08:59:30.721Z,65.79
2018-02-09T09:01:58.286Z,66.17
2018-02-09T09:04:25.932Z,65.40
2018-02-09T09:06:53.558Z,65.02
2018-02-09T09:09:21.121Z,64.82
2018-02-09T09:11:48.704Z,64.71
2018-02-09T09:14:16.272Z,63.95
2018-02-09T09:16:43.894Z,63.76
2018-02-09T09:19:11.461Z,62.06
2018-02-09T09:21:39.152Z,61.00
2018-02-09T09:24:06.774Z,59.88
2018-02-09T09:26:34.404Z,59.56
2018-02-09T09:29:01.990Z,59.53
2018-02-09T09:31:29.561Z,60.31
2018-02-09T09:33:57.156Z,60.53
2018-02-09T09:36:24.736Z,60.79
2018-02-09T09:38:52.431Z,61.71
2018-02-09T09:41:20.003Z,61.40
2018-02-09T09:43:47.574Z,61.14
2018-02-09T09:46:15.202Z,61.69
2018-02-09T09:48:42.830Z,61.52
2018-02-09T09:51:10.404Z,62.40
2018-02-09T09:53:37.945Z,61.65
2018-02-09T09:56:05.558Z,61.35
2018-02-09T09:58:33.122Z,61.57
2018-02-09T10:01:00.726Z,61.72
2018-02-09T10:03:28.294Z,60.88
2018-02-09T10:05:55.915Z,61.65
2018-02-09T10:08:23.509Z,60.99
2018-02-09T10:10:51.126Z,60.90
2018-02-09T10:13:18.751Z,60.97
2018-02-09T10:15:46.326Z,60.25
2018-02-09T10:18:13.903Z,59.66
2018-02-09T10:20:41.483Z,59.38
2018-02-09T10:23:09.115Z,58.27
2018-02-09T10:25:36.691Z,58.20
2018-02-09T10:28:04.320Z,56.51
2018-02-09T10:30:31.990Z,56.23
2018-02-09T10:32:59.555Z,53.00
2018-02-09T10:35:27.130Z,51.95
2018-02-09T10:37:54.764Z,51.21
2018-02-09T10:40:22.330Z,50.23
2018-02-09T10:42:49.884Z,49.62
2018-02-09T10:45:17.448Z,49.86
2018-02-09T10:47:45.087Z,48.27
2018-02-09T10:50:12.655Z,48.25
2018-02-09T10:52:40.274Z,49.09
2018-02-09T10:55:07.911Z,47.46
2018-02-09T10:57:35.475Z,48.29
2018-02-09T11:00:03.108Z,47.45
2018-02-09T11:02:30.673Z,47.71
2018-02-09T11:04:58.253Z,47.54
2018-02-09T11:07:25.818Z,46.37
2018-02-09T11:09:53.477Z,46.80
2018-02-09T11:12:21.928Z,45.60
2018-02-09T11:14:49.487Z,46.00
2018-02-09T11:17:17.155Z,47.23
2018-02-09T11:19:44.738Z,46.31
2018-02-09T11:22:12.323Z,45.90
2018-02-09T11:24:39.991Z,47.13
2018-02-09T11:27:07.613Z,46.24
2018-02-09T11:29:35.238Z,46.46
2018-02-09T11:32:02.876Z,47.06
2018-02-09T11:34:30.457Z,46.40
2018-02-09T11:36:58.030Z,45.79
2018-02-09T11:39:25.617Z,45.85
2018-02-09T11:41:53.208Z,45.71
2018-02-09T11:44:20.983Z,46.27
2018-02-09T11:46:48.563Z,45.30
2018-02-09T11:49:16.186Z,45.84
2018-02-09T11:51:43.768Z,45.67
2018-02-09T11:54:11.338Z,45.22
2018-02-09T11:56:39.000Z,44.72
2018-02-09T11:59:06.623Z,44.80
2018-02-09T12:01:34.298Z,44.03
2018-02-09T12:04:01.907Z,42.81
2018-02-09T12:06:29.471Z,44.33
2018-02-09T12:08:57.124Z,46.56
2018-02-09T12:11:24.686Z,48.43
2018-02-09T12:13:52.406Z,49.46
2018-02-09T12:16:20.038Z,49.52
2018-02-09T12:18:47.721Z,50.85
2018-02-09T12:21:15.297Z,51.72
2018-02-09T12:23:42.875Z,52.35
2018-02-09T12:26:10.429Z,53.54
2018-02-09T12:28:38.047Z,53.91
2018-02-09T12:31:05.614Z,54.54
2018-02-09T12:33:33.182Z,54.65
2018-02-09T12:36:00.873Z,55.00
2018-02-09T12:38:28.443Z,56.22
2018-02-09T12:40:56.090Z,55.89
2018-02-09T12:43:23.709Z,55.76
2018-02-09T12:45:51.282Z,55.89
2018-02-09T12:48:18.939Z,56.70
2018-02-09T12:50:46.531Z,56.70
2018-02-09T12:53:14.164Z,57.74
2018-02-09T12:55:41.730Z,57.32
2018-02-09T12:58:09.351Z,57.05
2018-02-09T13:00:36.991Z,57.33
2018-02-09T13:03:04.570Z,57.52
2018-02-09T13:05:32.272Z,57.72
2018-02-09T13:07:59.844Z,58.21
2018-02-09T13:10:27.417Z,57.85
2018-02-09T13:13:08.914Z,57.88
2018-02-09T13:15:36.554Z,58.43
2018-02-09T13:18:04.223Z,58.21
2018-02-09T13:20:31.796Z,58.47
2018-02-09T13:23:11.404Z,58.08
2018-02-09T13:25:38.973Z,58.17
2018-02-09T13:28:06.541Z,59.31
2018-02-09T13:30:34.125Z,59.06
2018-02-09T13:33:13.582Z,59.17
2018-02-09T13:35:41.255Z,58.77
2018-02-09T13:38:08.878Z,58.21
2018-02-09T13:40:36.502Z,58.17
2018-02-09T13:43:04.091Z,57.96
2018-02-09T13:45:31.695Z,58.32
2018-02-09T13:47:59.299Z,59.30
2018-02-09T13:50:26.866Z,59.39
2018-02-09T13:52:54.427Z,58.86
2018-02-09T13:55:22.012Z,59.51
2018-02-09T13:57:49.577Z,59.96
2018-02-09T14:00:17.299Z,59.63
2018-02-09T14:02:44.943Z,59.88
2018-02-09T14:05:12.503Z,59.81
2018-02-09T14:07:40.074Z,59.55
2018-02-09T14:10:07.702Z,59.63
2018-02-09T14:12:35.326Z,60.49
2018-02-09T14:15:02.898Z,60.36
2018-02-09T14:17:30.503Z,59.75
2018-02-09T14:19:58.080Z,60.22
2018-02-09T14:22:25.646Z,60.84
2018-02-09T14:24:53.316Z,60.55
2018-02-09T14:27:20.890Z,61.00
2018-02-09T14:29:48.455Z,60.79
2018-02-09T14:32:16.030Z,61.87
2018-02-09T14:34:43.655Z,61.80
2018-02-09T14:37:11.221Z,61.57
2018-02-09T14:39:38.850Z,61.84
2018-02-09T14:42:06.473Z,62.63
2018-02-09T14:44:34.038Z,62.95
2018-02-09T14:47:01.613Z,63.04
2018-02-09T14:49:29.256Z,63.85
2018-02-09T14:51:56.864Z,64.29
2018-02-09T14:54:24.508Z,64.23
2018-02-09T14:56:52.086Z,64.35
2018-02-09T14:59:19.780Z,64.76
2018-02-09T15:01:47.347Z,65.70
2018-02-09T15:04:14.975Z,66.45
2018-02-09T15:06:43.774Z,66.71
2018-02-09T15:09:11.336Z,67.56
2018-02-09T15:11:38.898Z,68.10
2018-02-09T15:14:06.463Z,68.23
2018-02-09T15:16:34.245Z,68.69
2018-02-09T15:19:01.851Z,68.91
2018-02-09T15:21:29.436Z,69.41
2018-02-09T15:23:57.082Z,69.68
2018-02-09T15:26:25.509Z,70.10
2018-02-09T15:28:53.085Z,70.60
2018-02-09T15:31:20.716Z,70.89
2018-02-09T15:33:48.386Z,71.46
2018-02-09T15:36:16.031Z,71.92
2018-02-09T15:38:43.609Z,72.24
2018-02-09T15:41:11.201Z,72.49
2018-02-09T15:43:38.846Z,73.06
2018-02-09T15:46:06.484Z,73.46
2018-02-09T15:48:34.985Z,73.98
2018-02-09T15:51:02.610Z,74.39
2018-02-09T15:53:30.292Z,74.70
2018-02-09T15:55:57.858Z,75.54
2018-02-09T15:58:25.422Z,75.52
2018-02-09T16:00:53.574Z,75.71
2018-02-09T16:03:21.203Z,76.27
2018-02-09T16:05:48.806Z,76.28
2018-02-09T16:08:16.422Z,76.79
2018-02-09T16:10:43.990Z,76.20
2018-02-09T16:13:11.530Z,76.23
2018-02-09T16:15:39.097Z,75.83
2018-02-09T16:18:06.655Z,75.85
2018-02-09T16:20:34.230Z,76.39
2018-02-09T16:23:01.796Z,76.77
2018-02-09T16:25:29.451Z,77.04
2018-02-09T16:27:57.125Z,76.42
2018-02-09T16:30:24.748Z,76.51
2018-02-09T16:32:52.325Z,76.11
2018-02-09T16:35:19.955Z,76.55
2018-02-09T16:37:47.592Z,76.24
2018-02-09T16:40:15.157Z,76.55
2018-02-09T16:42:43.662Z,76.54
2018-02-09T16:45:11.236Z,76.92
2018-02-09T16:47:38.824Z,76.62
2018-02-09T16:50:06.433Z,76.01
2018-02-09T16:52:33.994Z,75.79
2018-02-09T16:55:01.632Z,75.50
2018-02-09T16:57:30.014Z,74.75
2018-02-09T16:59:57.706Z,74.33
2018-02-09T17:02:25.273Z,73.92
2018-02-09T17:04:52.904Z,73.96
2018-02-09T17:07:20.535Z,73.89
2018-02-09T17:09:48.116Z,73.85
2018-02-09T17:12:15.787Z,74.35
2018-02-09T17:14:43.349Z,74.47
2018-02-09T17:17:10.905Z,74.67
2018-02-09T17:19:38.478Z,74.75
2018-02-09T17:22:06.360Z,75.58
2018-02-09T17:24:33.979Z,75.50
2018-02-09T17:27:01.554Z,75.68
2018-02-09T17:29:29.184Z,75.77
2018-02-09T17:31:56.777Z,75.77
2018-02-09T17:34:24.353Z,76.10
2018-02-09T17:36:52.007Z,76.71
2018-02-09T17:39:19.625Z,77.10
2018-02-09T17:41:47.203Z,77.30
2018-02-09T17:44:14.779Z,77.65
2018-02-09T17:46:42.360Z,77.95
2018-02-09T17:49:09.998Z,78.79
2018-02-09T17:51:37.623Z,78.74
2018-02-09T17:54:05.307Z,79.01
2018-02-09T17:56:32.934Z,79.50
2018-02-09T17:59:00.509Z,79.62
2018-02-09T18:01:28.083Z,79.61
2018-02-09T18:03:55.711Z,79.50
2018-02-09T18:06:23.278Z,79.55
2018-02-09T18:08:50.844Z,79.69
2018-02-09T18:11:18.514Z,79.78
2018-02-09T18:13:46.098Z,79.95
2018-02-09T18:16:13.747Z,80.07
2018-02-09T18:18:41.322Z,80.14
2018-02-09T18:21:08.889Z,80.26
2018-02-09T18:23:36.803Z,80.31
2018-02-09T18:26:04.498Z,80.45
2018-02-09T18:28:32.178Z,80.95
2018-02-09T18:30:59.789Z,80.84
2018-02-09T18:33:27.693Z,80.76
2018-02-09T18:35:55.341Z,81.04
2018-02-09T18:38:22.901Z,80.90
2018-02-09T18:40:50.534Z,81.44
2018-02-09T18:43:18.241Z,81.68
2018-02-09T18:45:45.869Z,81.73
2018-02-09T18:48:13.470Z,81.91
2018-02-09T18:50:41.033Z,81.97
2018-02-09T18:53:08.618Z,81.91
2018-02-09T18:55:36.241Z,82.23
2018-02-09T18:58:03.822Z,82.55
2018-02-09T19:00:31.454Z,82.70
2018-02-09T19:02:59.149Z,82.67
2018-02-09T19:05:26.753Z,82.41
2018-02-09T19:07:54.322Z,82.79
2018-02-09T19:10:21.966Z,82.77
2018-02-09T19:12:49.556Z,82.57
2018-02-09T19:15:17.144Z,82.46
2018-02-09T19:17:44.755Z,82.46
2018-02-09T19:20:12.461Z,82.43
2018-02-09T19:22:40.022Z,82.44
2018-02-09T19:25:07.645Z,82.59
2018-02-09T19:27:35.211Z,82.75
2018-02-09T19:30:02.778Z,83.29
2018-02-09T19:32:30.373Z,83.56
2018-02-09T19:34:57.995Z,83.59
2018-02-09T19:37:25.674Z,83.74
2018-02-09T19:39:53.287Z,84.31
2018-02-09T19:42:20.859Z,84.55
2018-02-09T19:44:48.459Z,84.68
2018-02-09T19:47:16.030Z,84.92
2018-02-09T19:49:43.618Z,85.04
2018-02-09T19:52:11.254Z,85.14
2018-02-09T19:54:38.946Z,85.12
2018-02-09T19:57:06.526Z,85.22
2018-02-09T19:59:34.165Z,85.18
2018-02-09T20:02:01.806Z,85.23
2018-02-09T20:04:29.423Z,85.30
2018-02-09T20:06:57.057Z,85.74
2018-02-09T20:09:24.687Z,85.88
2018-02-09T20:11:52.268Z,86.33
2018-02-09T20:14:19.854Z,86.34
2018-02-09T20:16:47.432Z,86.27
2018-02-09T20:19:15.358Z,86.43
2018-02-09T20:21:42.931Z,86.57
2018-02-09T20:24:10.552Z,86.43
2018-02-09T20:26:38.125Z,86.46
2018-02-09T20:29:05.767Z,86.43
2018-02-09T20:31:33.342Z,86.58
2018-02-09T20:34:00.926Z,86.77
2018-02-09T20:36:28.569Z,86.87
2018-02-09T20:38:56.316Z,87.21
2018-02-09T20:41:23.991Z,87.24
2018-02-09T20:43:51.563Z,87.27
2018-02-09T20:46:19.119Z,87.40
2018-02-09T20:48:46.758Z,87.66
2018-02-09T20:51:14.391Z,88.01
2018-02-09T20:53:42.026Z,88.30
2018-02-09T20:56:09.657Z,88.59
2018-02-09T20:58:37.363Z,88.52
2018-02-09T21:01:05.135Z,88.48
2018-02-09T21:03:32.729Z,88.42
2018-02-09T21:06:00.298Z,88.44
2018-02-09T21:08:27.867Z,88.35
2018-02-09T21:10:55.451Z,88.11
2018-02-09T21:13:23.077Z,87.94
2018-02-09T21:15:50.710Z,87.80
2018-02-09T21:18:18.287Z,87.93
2018-02-09T21:20:45.831Z,87.79
2018-02-09T21:23:13.401Z,87.67
2018-02-09T21:25:40.966Z,87.71
2018-02-09T21:30:42.453Z,87.81
2018-02-09T21:33:10.166Z,88.35
2018-02-09T21:35:37.793Z,88.60
2018-02-09T21:38:05.427Z,88.49
2018-02-09T21:40:33.001Z,88.41
2018-02-09T21:43:00.621Z,88.26
2018-02-09T21:45:28.331Z,87.94
2018-02-09T21:47:55.898Z,87.69
2018-02-09T21:50:23.454Z,87.46
2018-02-09T21:52:51.026Z,87.46
2018-02-09T21:55:18.598Z,87.58
2018-02-09T21:57:46.217Z,87.74
2018-02-09T22:00:13.837Z,87.97
2018-02-09T22:02:41.469Z,87.86
2018-02-09T22:05:09.044Z,87.81
2018-02-09T22:07:36.600Z,87.86
2018-02-09T22:10:04.166Z,87.97
2018-02-09T22:12:31.725Z,88.27
2018-02-09T22:14:59.286Z,88.32
2018-02-09T22:17:26.880Z,88.33
2018-02-09T22:19:54.503Z,88.38
2018-02-09T22:22:22.070Z,88.61
2018-02-09T22:24:49.633Z,88.90
2018-02-09T22:27:17.235Z,89.06
2018-02-09T22:29:44.806Z,88.91
2018-02-09T22:32:12.426Z,88.84
2018-02-09T22:34:40.073Z,89.01
2018-02-09T22:37:07.651Z,88.98
2018-02-09T22:39:35.298Z,89.00
2018-02-09T22:42:02.881Z,88.96
2018-02-09T22:44:30.439Z,89.04
2018-02-09T22:46:58.066Z,89.37
2018-02-09T22:49:25.694Z,89.39
2018-02-09T22:51:53.310Z,89.53
2018-02-09T22:54:20.865Z,89.63
2018-02-09T22:56:48.475Z,89.76
2018-02-09T22:59:16.063Z,89.71
2018-02-09T23:01:43.682Z,89.54
2018-02-09T23:04:11.310Z,89.67
2018-02-09T23:06:38.940Z,89.86
2018-02-09T23:09:06.614Z,89.84
2018-02-09T23:11:34.234Z,89.73
2018-02-09T23:14:01.854Z,89.59
2018-02-09T23:16:29.431Z,89.52
2018-02-09T23:18:56.992Z,89.59
2018-02-09T23:21:24.622Z,89.56
2018-02-09T23:23:52.183Z,89.32
2018-02-09T23:26:19.820Z,89.23
2018-02-09T23:28:47.402Z,89.00
2018-02-09T23:31:15.023Z,88.42
2018-02-09T23:33:42.594Z,88.09
2018-02-09T23:36:10.154Z,88.27
2018-02-09T23:38:37.822Z,88.91
2018-02-09T23:41:05.385Z,89.54
2018-02-09T23:43:32.950Z,89.87
2018-02-09T23:46:00.525Z,89.72
2018-02-09T23:48:28.150Z,89.65
2018-02-09T23:50:55.722Z,89.36
2018-02-09T23:53:23.290Z,89.12
2018-02-09T23:55:51.007Z,88.95
2018-02-09T23:58:18.611Z,88.88
